Time;durP1;ratioP1;P1;durP2;ratioP2;P2;SDS_P1;SDS_P2;PMS_P1;PMS_P2;Temp;Humidity;BMP_temperature;BMP_pressure;BME280_temperature;BME280_humidity;BME280_pressure;Samples;Min_cycle;Max_cycle;Signal;HPM_P1;HPM_P2
2023/09/05 04:00:44;;;;;;;2.67;1.50;;;19.20;70.00;;;;;;5879402;23;21070;-77
2023/09/05 04:03:12;;;;;;;2.17;1.50;;;19.10;69.80;;;;;;4919062;29;20433;-77
2023/09/05 04:05:39;;;;;;;2.30;1.60;;;19.10;69.40;;;;;;4919084;29;20488;-77
2023/09/05 04:08:07;;;;;;;1.80;1.20;;;19.10;69.70;;;;;;4918875;29;20808;-77
2023/09/05 04:10:34;;;;;;;2.23;1.47;;;19.20;69.90;;;;;;4919311;29;20471;-77
2023/09/05 04:13:01;;;;;;;2.23;1.40;;;19.20;69.60;;;;;;4920199;29;20942;-77
2023/09/05 04:15:28;;;;;;;2.30;1.53;;;19.10;70.10;;;;;;4920024;29;20444;-77
2023/09/05 04:17:56;;;;;;;2.70;1.27;;;19.10;69.60;;;;;;4920097;29;20453;-77
2023/09/05 04:20:22;;;;;;;2.80;1.60;;;19.10;69.40;;;;;;4920421;29;20532;-77
2023/09/05 04:22:49;;;;;;;2.47;1.30;;;19.10;69.60;;;;;;4921807;29;20457;-77
2023/09/05 04:25:16;;;;;;;2.87;1.33;;;19.20;70.00;;;;;;4922691;29;20859;-77
2023/09/05 04:27:42;;;;;;;2.47;1.63;;;19.20;69.90;;;;;;4922457;29;20456;-77
2023/09/05 04:30:10;;;;;;;2.40;1.77;;;19.20;70.10;;;;;;4922367;29;20445;-77
2023/09/05 04:32:37;;;;;;;2.30;1.50;;;19.20;70.10;;;;;;4920616;29;20504;-76
2023/09/05 04:35:06;;;;;;;1.70;1.10;;;19.10;70.20;;;;;;4922454;29;20453;-76
2023/09/05 04:37:31;;;;;;;2.33;1.33;;;19.10;70.30;;;;;;4922615;29;20516;-76
2023/09/05 04:39:58;;;;;;;2.90;1.73;;;19.10;70.40;;;;;;4919773;29;20873;-75
2023/09/05 04:42:26;;;;;;;2.00;1.40;;;18.90;70.00;;;;;;4918336;29;20240;-76
2023/09/05 04:44:53;;;;;;;2.00;1.30;;;18.80;69.90;;;;;;4918174;29;20512;-76
2023/09/05 04:47:24;;;;;;;2.10;1.40;;;18.80;70.60;;;;;;4919980;29;20459;-76
2023/09/05 04:49:52;;;;;;;2.47;1.67;;;18.90;70.60;;;;;;4920563;29;20459;-76
2023/09/05 04:52:21;;;;;;;3.10;1.37;;;18.80;70.70;;;;;;4920288;29;21004;-76
2023/09/05 04:54:48;;;;;;;3.17;1.77;;;18.80;71.10;;;;;;4920955;29;20460;-76
2023/09/05 04:57:16;;;;;;;2.40;1.30;;;18.80;71.10;;;;;;4920445;29;20456;-76
2023/09/05 04:59:44;;;;;;;2.60;1.90;;;18.80;71.30;;;;;;4920244;29;20997;-75
2023/09/05 05:02:11;;;;;;;2.63;2.00;;;18.80;70.90;;;;;;4920282;29;20520;-76
2023/09/05 05:04:38;;;;;;;2.77;1.30;;;18.80;71.00;;;;;;4919408;29;20453;-77
2023/09/05 05:07:05;;;;;;;2.40;1.60;;;18.80;71.00;;;;;;4919119;29;20500;-76
2023/09/05 05:09:33;;;;;;;2.93;1.70;;;18.90;70.80;;;;;;4919151;29;20448;-75
2023/09/05 05:12:00;;;;;;;2.57;1.50;;;18.90;70.60;;;;;;4919032;29;20481;-76
2023/09/05 05:14:27;;;;;;;3.00;2.00;;;19.10;70.80;;;;;;4918858;29;20456;-76
2023/09/05 05:16:54;;;;;;;2.50;1.70;;;19.20;71.00;;;;;;4918918;29;20452;-76
2023/09/05 05:19:20;;;;;;;2.90;1.63;;;19.30;70.30;;;;;;4918658;29;20463;-75
2023/09/05 05:21:47;;;;;;;2.30;1.40;;;19.50;70.00;;;;;;4919042;29;20472;-76
2023/09/05 05:24:14;;;;;;;2.90;1.60;;;19.60;70.20;;;;;;4919168;29;20460;-76
2023/09/05 05:26:42;;;;;;;3.30;2.20;;;19.70;70.40;;;;;;4919443;29;20833;-76
2023/09/05 05:29:09;;;;;;;2.40;1.60;;;19.80;70.20;;;;;;4919631;29;20449;-76
2023/09/05 05:31:36;;;;;;;2.13;1.47;;;19.90;70.10;;;;;;4930801;29;20472;-74
2023/09/05 05:34:03;;;;;;;2.20;1.37;;;20.00;69.70;;;;;;4938930;29;20481;-76
2023/09/05 05:36:30;;;;;;;3.20;1.80;;;20.10;69.10;;;;;;4941845;29;20425;-78
2023/09/05 05:38:57;;;;;;;2.70;1.77;;;20.30;68.50;;;;;;4930519;29;21006;-77
2023/09/05 05:41:23;;;;;;;2.30;1.60;;;20.30;68.50;;;;;;4921888;29;20469;-75
2023/09/05 05:43:51;;;;;;;3.23;1.60;;;20.20;67.70;;;;;;4919673;29;20453;-76
2023/09/05 05:46:18;;;;;;;4.60;2.10;;;20.30;68.40;;;;;;4918407;29;20492;-76
2023/09/05 05:48:45;;;;;;;2.47;1.60;;;20.30;68.30;;;;;;4920271;29;20480;-76
2023/09/05 05:51:12;;;;;;;2.83;1.40;;;20.00;68.60;;;;;;4921253;29;20464;-76
2023/09/05 05:53:39;;;;;;;2.40;1.90;;;20.00;69.30;;;;;;4921379;29;20452;-76
2023/09/05 05:56:08;;;;;;;2.73;1.80;;;20.30;69.40;;;;;;4923892;29;20445;-76
2023/09/05 05:58:35;;;;;;;3.80;1.90;;;20.70;68.70;;;;;;4922025;29;20449;-76
2023/09/05 06:01:03;;;;;;;4.53;2.33;;;21.70;67.20;;;;;;4922588;29;20483;-76
2023/09/05 06:03:30;;;;;;;6.77;2.73;;;22.50;64.30;;;;;;4922840;29;20453;-77
2023/09/05 06:05:57;;;;;;;2.67;1.90;;;23.90;61.40;;;;;;4922355;29;20512;-77
2023/09/05 06:08:24;;;;;;;2.73;1.93;;;24.40;57.70;;;;;;4924097;29;20523;-76
2023/09/05 06:10:51;;;;;;;2.37;1.67;;;25.00;57.90;;;;;;4923230;29;20476;-77
2023/09/05 06:13:17;;;;;;;2.20;1.70;;;25.10;56.60;;;;;;4923571;29;20965;-77
2023/09/05 06:15:44;;;;;;;2.77;1.60;;;25.90;56.00;;;;;;4922666;29;20958;-77
2023/09/05 06:18:12;;;;;;;2.50;1.70;;;26.40;54.20;;;;;;4923397;29;20453;-76
2023/09/05 06:20:39;;;;;;;2.33;1.67;;;26.50;54.10;;;;;;4923629;29;20457;-77
2023/09/05 06:23:06;;;;;;;2.83;1.63;;;27.10;52.20;;;;;;4924195;29;20448;-77
2023/09/05 06:25:32;;;;;;;2.97;1.70;;;28.00;52.20;;;;;;4923271;29;20456;-76
2023/09/05 06:27:59;;;;;;;2.70;1.70;;;28.10;50.20;;;;;;4923696;29;20452;-77
2023/09/05 06:30:26;;;;;;;4.63;1.93;;;28.40;50.60;;;;;;4923473;29;20951;-78
2023/09/05 06:32:52;;;;;;;2.17;1.33;;;27.90;50.00;;;;;;4922498;29;20453;-77
2023/09/05 06:35:20;;;;;;;2.50;1.30;;;28.10;51.10;;;;;;4921156;29;20453;-75
2023/09/05 06:37:55;;;;;;;3.27;1.70;;;29.50;48.90;;;;;;4921980;29;20824;-77
2023/09/05 06:40:23;;;;;;;2.53;1.30;;;29.50;47.90;;;;;;4922528;29;20543;-79
2023/09/05 06:42:50;;;;;;;3.30;1.47;;;29.50;48.60;;;;;;4921699;29;20548;-77
2023/09/05 06:45:17;;;;;;;3.53;1.77;;;30.10;47.70;;;;;;4922097;29;20483;-78
2023/09/05 06:47:44;;;;;;;2.63;1.20;;;30.50;47.40;;;;;;4921862;29;20488;-77
2023/09/05 06:50:11;;;;;;;3.80;1.60;;;30.50;46.20;;;;;;4921633;29;20472;-73
2023/09/05 06:52:40;;;;;;;2.90;1.60;;;29.80;47.40;;;;;;4922252;29;20531;-77
2023/09/05 06:55:07;;;;;;;1.90;1.20;;;30.50;46.90;;;;;;4921750;29;20973;-77
2023/09/05 06:57:34;;;;;;;2.20;1.33;;;30.10;47.40;;;;;;4922060;29;20445;-77
2023/09/05 07:00:01;;;;;;;3.10;1.50;;;29.10;48.90;;;;;;4922155;29;20455;-77
2023/09/05 07:02:28;;;;;;;2.40;1.47;;;28.40;50.50;;;;;;4922266;29;20476;-77
2023/09/05 07:04:54;;;;;;;3.43;1.40;;;28.00;51.30;;;;;;4921918;29;20481;-77
2023/09/05 07:07:21;;;;;;;2.23;1.70;;;27.70;52.10;;;;;;4921741;29;20488;-77
2023/09/05 07:09:49;;;;;;;3.53;1.30;;;27.10;52.90;;;;;;4922762;29;20444;-77
2023/09/05 07:12:16;;;;;;;2.00;1.33;;;26.60;54.60;;;;;;4922774;29;20494;-77
2023/09/05 07:14:43;;;;;;;2.43;1.17;;;26.40;55.10;;;;;;4922356;29;20456;-77
2023/09/05 07:17:10;;;;;;;1.87;1.20;;;26.00;56.60;;;;;;4922165;29;20440;-77
2023/09/05 07:19:37;;;;;;;8.43;1.93;;;25.70;56.60;;;;;;4921649;29;21006;-76
2023/09/05 07:22:04;;;;;;;2.50;1.40;;;25.20;57.30;;;;;;4922345;29;20511;-77
2023/09/05 07:24:31;;;;;;;2.03;1.37;;;25.00;58.60;;;;;;4922350;29;20457;-77
2023/09/05 07:26:59;;;;;;;2.77;1.50;;;24.70;59.10;;;;;;4922065;29;20575;-76
2023/09/05 07:29:26;;;;;;;2.40;1.60;;;24.90;59.90;;;;;;4921911;29;20453;-76
2023/09/05 07:31:53;;;;;;;2.53;1.20;;;25.00;58.40;;;;;;4922247;29;20481;-76
2023/09/05 07:34:20;;;;;;;2.13;1.50;;;24.80;59.10;;;;;;4921584;29;20449;-76
2023/09/05 07:36:47;;;;;;;2.43;1.60;;;24.60;59.00;;;;;;4921831;29;20496;-77
2023/09/05 07:39:13;;;;;;;1.90;1.30;;;24.70;59.90;;;;;;4921655;29;20520;-77
2023/09/05 07:41:40;;;;;;;2.33;1.30;;;24.80;59.00;;;;;;4921324;29;20905;-77
2023/09/05 07:44:08;;;;;;;2.23;1.70;;;24.40;59.30;;;;;;4921215;29;20448;-77
2023/09/05 07:46:35;;;;;;;2.53;1.50;;;24.40;61.00;;;;;;4921507;29;20487;-76
2023/09/05 07:49:03;;;;;;;2.30;1.40;;;24.30;60.50;;;;;;4921979;29;20453;-76
2023/09/05 07:51:30;;;;;;;2.00;1.27;;;24.20;60.70;;;;;;4921928;29;20465;-76
2023/09/05 07:54:02;;;;;;;3.50;1.20;;;24.40;60.30;;;;;;4922561;29;20456;-77
2023/09/05 07:56:30;;;;;;;2.30;1.40;;;24.50;60.20;;;;;;4921771;29;20476;-76
2023/09/05 07:58:56;;;;;;;3.40;1.20;;;24.50;59.40;;;;;;4921951;29;20477;-77
2023/09/05 08:01:25;;;;;;;2.73;1.40;;;24.60;60.70;;;;;;4922236;29;20489;-76
2023/09/05 08:03:52;;;;;;;9.33;1.80;;;24.60;60.90;;;;;;4922169;29;20464;-76
2023/09/05 08:06:20;;;;;;;2.20;1.37;;;24.60;60.60;;;;;;4922184;29;20495;-76
2023/09/05 08:08:47;;;;;;;2.83;1.50;;;24.60;60.00;;;;;;4921682;29;20965;-76
2023/09/05 08:11:13;;;;;;;1.90;1.23;;;24.60;59.90;;;;;;4922102;29;20469;-75
2023/09/05 08:13:40;;;;;;;2.43;1.30;;;24.70;60.00;;;;;;4921943;29;20456;-76
2023/09/05 08:16:07;;;;;;;1.90;1.20;;;24.60;59.80;;;;;;4921474;29;20456;-77
2023/09/05 08:18:35;;;;;;;2.10;1.30;;;24.40;59.90;;;;;;4922164;29;20452;-76
2023/09/05 08:21:04;;;;;;;3.03;1.40;;;24.30;60.90;;;;;;4922270;29;20469;-76
2023/09/05 08:23:31;;;;;;;4.47;1.30;;;24.50;60.60;;;;;;4921623;29;20543;-76
2023/09/05 08:25:57;;;;;;;2.50;1.30;;;24.70;60.50;;;;;;4922245;29;20461;-76
2023/09/05 08:28:26;;;;;;;2.13;1.40;;;24.80;60.30;;;;;;4921119;29;20516;-76
2023/09/05 08:30:59;;;;;;;2.20;1.50;;;24.90;59.70;;;;;;4921333;29;21080;-76
2023/09/05 08:33:26;;;;;;;2.40;1.10;;;25.00;59.30;;;;;;4921288;29;20946;-77
2023/09/05 08:35:54;;;;;;;3.23;1.40;;;24.80;59.30;;;;;;4922336;29;20997;-77
2023/09/05 08:38:20;;;;;;;2.70;1.47;;;25.10;60.00;;;;;;4920690;29;20453;-76
2023/09/05 08:40:47;;;;;;;4.07;1.43;;;25.20;60.00;;;;;;4920529;29;20480;-76
2023/09/05 08:43:16;;;;;;;1.90;1.23;;;25.10;59.70;;;;;;4920458;29;20504;-77
2023/09/05 08:45:46;;;;;;;3.30;1.10;;;24.90;59.60;;;;;;4921181;29;20532;-76
2023/09/05 08:48:12;;;;;;;2.20;1.07;;;25.10;59.30;;;;;;4919285;29;20512;-77
2023/09/05 08:50:41;;;;;;;2.17;1.47;;;25.00;57.50;;;;;;4918176;29;20484;-77
2023/09/05 08:53:11;;;;;;;1.73;1.03;;;25.10;58.20;;;;;;4917990;29;20449;-76
2023/09/05 08:55:40;;;;;;;2.20;1.20;;;25.00;57.50;;;;;;4918189;29;20448;-76
2023/09/05 08:58:10;;;;;;;2.13;1.10;;;24.90;59.10;;;;;;4917419;29;20507;-76
2023/09/05 09:00:37;;;;;;;1.70;1.00;;;24.80;56.40;;;;;;4917181;29;20452;-76
2023/09/05 09:03:05;;;;;;;2.10;1.30;;;24.70;57.10;;;;;;4917563;29;20429;-76
2023/09/05 09:05:32;;;;;;;1.73;1.03;;;24.60;57.50;;;;;;4917364;29;20453;-76
2023/09/05 09:07:59;;;;;;;2.93;1.10;;;24.70;58.60;;;;;;4917263;29;20495;-76
2023/09/05 09:10:26;;;;;;;2.23;1.10;;;24.90;57.60;;;;;;4917602;29;20960;-77
2023/09/05 09:12:55;;;;;;;1.90;1.00;;;24.70;58.80;;;;;;4917308;29;20551;-76
2023/09/05 09:15:25;;;;;;;2.20;1.10;;;24.90;60.60;;;;;;4916942;29;20969;-76
2023/09/05 09:17:53;;;;;;;3.00;1.30;;;24.90;60.40;;;;;;4917281;29;20448;-76
2023/09/05 09:20:21;;;;;;;1.87;1.10;;;25.00;60.90;;;;;;4916810;29;20825;-75
2023/09/05 09:22:50;;;;;;;2.00;1.30;;;25.10;60.30;;;;;;4917989;29;20508;-75
2023/09/05 09:25:20;;;;;;;1.80;1.10;;;25.00;60.60;;;;;;4917579;29;20460;-76
2023/09/05 09:27:53;;;;;;;1.80;1.20;;;25.10;60.80;;;;;;4918181;29;20921;-76
2023/09/05 09:30:23;;;;;;;2.30;1.40;;;25.30;60.20;;;;;;4920974;29;20444;-76
2023/09/05 09:32:52;;;;;;;2.33;1.57;;;25.40;59.50;;;;;;4920859;29;20428;-75
2023/09/05 09:35:19;;;;;;;1.80;1.10;;;25.10;59.20;;;;;;4920945;29;20445;-75
2023/09/05 09:37:46;;;;;;;3.80;1.33;;;25.20;59.90;;;;;;4920753;29;20441;-74
2023/09/05 09:40:16;;;;;;;2.07;1.10;;;25.10;59.50;;;;;;4920740;29;20444;-76
2023/09/05 09:42:46;;;;;;;4.03;1.20;;;25.10;60.00;;;;;;4921059;29;20468;-74
2023/09/05 09:45:16;;;;;;;2.17;1.10;;;25.40;60.40;;;;;;4920903;29;20485;-74
2023/09/05 09:47:47;;;;;;;1.73;1.00;;;25.30;59.00;;;;;;4921561;29;20491;-74
2023/09/05 09:50:16;;;;;;;2.03;1.00;;;25.30;60.00;;;;;;4920987;29;20808;-75
2023/09/05 09:52:45;;;;;;;2.17;1.23;;;25.30;58.90;;;;;;4920522;29;20484;-74
2023/09/05 09:55:14;;;;;;;2.00;1.00;;;25.40;61.20;;;;;;4920486;29;20458;-76
2023/09/05 09:57:46;;;;;;;2.10;1.20;;;25.30;59.80;;;;;;4920482;29;20472;-75
2023/09/05 10:00:18;;;;;;;1.90;0.90;;;25.50;59.70;;;;;;4920320;29;20433;-76
2023/09/05 10:02:47;;;;;;;2.03;1.20;;;25.50;58.50;;;;;;4919938;29;20485;-75
2023/09/05 10:05:16;;;;;;;1.90;1.03;;;25.40;57.90;;;;;;4920358;29;20475;-75
2023/09/05 10:07:43;;;;;;;1.70;0.93;;;25.40;58.80;;;;;;4919865;29;20481;-75
2023/09/05 10:10:11;;;;;;;1.60;1.00;;;25.50;58.80;;;;;;4920283;29;20480;-75
2023/09/05 10:12:38;;;;;;;2.40;1.20;;;25.70;59.40;;;;;;4920198;29;20479;-74
2023/09/05 10:15:07;;;;;;;1.70;1.10;;;25.70;58.90;;;;;;4920728;29;20456;-76
2023/09/05 10:17:36;;;;;;;1.70;1.10;;;25.70;59.40;;;;;;4920104;29;20453;-76
2023/09/05 10:20:04;;;;;;;1.83;1.00;;;25.70;58.00;;;;;;4921121;29;20551;-76
2023/09/05 10:22:34;;;;;;;2.73;1.00;;;25.80;57.80;;;;;;4919982;29;20468;-75
2023/09/05 10:25:01;;;;;;;1.70;1.00;;;25.90;57.70;;;;;;4919679;29;20839;-76
2023/09/05 10:27:27;;;;;;;1.80;1.00;;;26.00;57.80;;;;;;4919864;29;20484;-76
2023/09/05 10:29:54;;;;;;;1.80;1.10;;;26.00;56.50;;;;;;4919687;29;20448;-76
2023/09/05 10:32:22;;;;;;;1.77;1.10;;;25.80;57.10;;;;;;4919944;29;20476;-76
2023/09/05 10:35:02;;;;;;;1.73;1.10;;;26.00;58.60;;;;;;4919749;29;20457;-75
2023/09/05 10:37:43;;;;;;;1.90;1.17;;;26.20;58.00;;;;;;4919852;29;20435;-75
2023/09/05 10:40:11;;;;;;;2.10;1.10;;;26.30;57.40;;;;;;4919100;29;20433;-77
2023/09/05 10:42:43;;;;;;;1.67;1.00;;;26.30;57.40;;;;;;4919123;29;20889;-77
2023/09/05 10:45:34;;;;;;;1.97;1.00;;;26.40;58.20;;;;;;4919255;29;20448;-78
2023/09/05 10:48:04;;;;;;;1.90;1.20;;;26.50;56.50;;;;;;4905942;29;20499;-76
2023/09/05 10:50:33;;;;;;;2.37;1.00;;;26.40;57.60;;;;;;4920100;29;20473;-78
2023/09/05 10:53:23;;;;;;;2.03;1.20;;;26.10;58.40;;;;;;4919442;29;20445;-76
2023/09/05 10:55:54;;;;;;;2.30;1.30;;;26.10;56.50;;;;;;4919432;29;20480;-76
2023/09/05 10:58:42;;;;;;;2.37;1.07;;;26.10;57.90;;;;;;4919334;29;20455;-76
2023/09/05 11:01:48;;;;;;;1.80;1.20;;;26.00;56.40;;;;;;4919503;29;20559;-77
2023/09/05 11:04:20;;;;;;;2.47;1.13;;;26.20;58.60;;;;;;4918971;29;20459;-77
2023/09/05 11:07:06;;;;;;;1.70;1.00;;;26.30;56.30;;;;;;4919506;29;20445;-77
2023/09/05 11:09:48;;;;;;;1.60;1.00;;;26.30;57.30;;;;;;4921481;29;20436;-79
2023/09/05 11:12:15;;;;;;;2.87;1.00;;;26.40;56.50;;;;;;4922396;29;20525;-79
2023/09/05 11:14:42;;;;;;;2.00;1.10;;;26.70;57.00;;;;;;4921420;29;20449;-76
2023/09/05 11:17:13;;;;;;;2.80;1.03;;;26.80;56.40;;;;;;4919961;29;20449;-78
2023/09/05 11:19:42;;;;;;;1.60;0.90;;;26.90;55.70;;;;;;4919805;29;20452;-78
2023/09/05 11:22:14;;;;;;;2.10;1.03;;;27.00;56.50;;;;;;4919559;29;20480;-77
2023/09/05 11:24:46;;;;;;;1.60;1.00;;;27.00;55.30;;;;;;4919130;29;20915;-75
2023/09/05 11:27:14;;;;;;;1.87;1.10;;;27.10;56.30;;;;;;4919598;29;20433;-75
2023/09/05 11:29:41;;;;;;;1.70;1.10;;;27.40;54.90;;;;;;4918789;29;20946;-76
2023/09/05 11:32:08;;;;;;;1.90;1.40;;;27.50;54.60;;;;;;4919472;29;20477;-76
2023/09/05 11:34:35;;;;;;;1.67;1.00;;;27.60;56.20;;;;;;4919248;29;20457;-77
2023/09/05 11:37:02;;;;;;;1.90;1.10;;;27.60;55.00;;;;;;4919423;29;20448;-75
2023/09/05 11:39:30;;;;;;;1.60;1.00;;;27.90;53.80;;;;;;4919934;29;20448;-76
2023/09/05 11:41:58;;;;;;;1.80;1.00;;;28.00;54.00;;;;;;4919314;29;21002;-76
2023/09/05 11:44:40;;;;;;;2.17;0.90;;;28.10;54.10;;;;;;4919771;29;20448;-76
2023/09/05 11:47:08;;;;;;;1.67;0.90;;;28.00;54.50;;;;;;4918849;29;20436;-76
2023/09/05 11:49:36;;;;;;;1.90;1.03;;;28.10;54.00;;;;;;4919271;29;20449;-77
2023/09/05 11:52:04;;;;;;;1.90;1.10;;;28.30;53.70;;;;;;4919136;29;20477;-76
2023/09/05 11:54:33;;;;;;;1.90;1.33;;;28.50;54.30;;;;;;4920829;29;20472;-77
2023/09/05 11:57:02;;;;;;;2.07;1.13;;;28.70;53.50;;;;;;4919346;29;20855;-78
2023/09/05 11:59:30;;;;;;;2.40;1.30;;;28.80;53.90;;;;;;4921666;29;21017;-76
2023/09/05 12:01:57;;;;;;;2.43;1.13;;;28.70;51.60;;;;;;4919181;29;20840;-76
2023/09/05 12:04:24;;;;;;;1.70;1.00;;;28.70;52.60;;;;;;4920039;29;20460;-77
2023/09/05 12:06:51;;;;;;;1.77;0.90;;;28.70;52.00;;;;;;4919571;29;20452;-76
2023/09/05 12:09:20;;;;;;;1.70;1.00;;;28.70;52.40;;;;;;4918420;29;20480;-75
2023/09/05 12:11:49;;;;;;;1.70;1.00;;;28.70;52.90;;;;;;4918609;29;20476;-77
2023/09/05 12:14:17;;;;;;;2.53;1.17;;;28.70;52.00;;;;;;4918192;29;20484;-77
2023/09/05 12:16:47;;;;;;;2.00;1.20;;;28.70;53.20;;;;;;4918343;29;20532;-76
2023/09/05 12:19:14;;;;;;;2.53;1.00;;;28.80;51.00;;;;;;4918664;29;20480;-78
2023/09/05 12:21:41;;;;;;;1.73;1.03;;;28.70;51.20;;;;;;4917852;29;20469;-76
2023/09/05 12:24:22;;;;;;;1.73;1.10;;;28.80;52.30;;;;;;4917996;29;20441;-77
2023/09/05 12:26:52;;;;;;;1.70;1.10;;;28.80;51.90;;;;;;4917748;29;20456;-76
2023/09/05 12:29:21;;;;;;;2.10;1.20;;;28.50;53.20;;;;;;4917737;29;20473;-76
2023/09/05 12:31:49;;;;;;;2.83;1.00;;;28.80;53.40;;;;;;4917815;29;20580;-76
2023/09/05 12:34:17;;;;;;;1.73;1.00;;;29.30;51.80;;;;;;4917687;29;20464;-77
2023/09/05 12:36:44;;;;;;;1.70;0.90;;;29.20;51.00;;;;;;4917345;29;20456;-75
2023/09/05 12:39:10;;;;;;;2.57;1.30;;;28.90;50.70;;;;;;4917509;29;20477;-76
2023/09/05 12:41:37;;;;;;;1.70;1.03;;;28.90;50.10;;;;;;4917658;29;21013;-77
2023/09/05 12:44:06;;;;;;;3.27;1.10;;;28.80;50.90;;;;;;4917089;29;20931;-76
2023/09/05 12:46:34;;;;;;;1.73;1.20;;;28.60;51.60;;;;;;4917714;29;20484;-76
2023/09/05 12:49:01;;;;;;;2.30;0.90;;;28.90;50.80;;;;;;4918034;29;20535;-77
2023/09/05 12:51:28;;;;;;;1.60;1.07;;;29.10;52.00;;;;;;4917569;29;20472;-75
2023/09/05 12:53:55;;;;;;;1.70;1.10;;;29.30;50.50;;;;;;4917689;29;20456;-76
2023/09/05 12:56:23;;;;;;;2.40;1.07;;;29.30;51.20;;;;;;4917113;29;20989;-76
2023/09/05 12:58:51;;;;;;;1.90;1.00;;;29.20;51.20;;;;;;4917611;29;20445;-76
2023/09/05 13:01:19;;;;;;;2.23;1.10;;;29.10;50.80;;;;;;4917200;29;20547;-77
2023/09/05 13:03:47;;;;;;;1.60;1.00;;;29.20;51.90;;;;;;4918059;29;20459;-77
2023/09/05 13:06:14;;;;;;;1.80;1.03;;;29.30;51.30;;;;;;4918058;29;20512;-78
2023/09/05 13:08:41;;;;;;;1.67;1.03;;;29.40;51.30;;;;;;4918628;29;20796;-76
2023/09/05 13:11:08;;;;;;;1.97;1.10;;;29.70;50.70;;;;;;4917153;29;20491;-75
2023/09/05 13:13:35;;;;;;;1.77;0.97;;;29.20;51.50;;;;;;4917429;29;20445;-76
2023/09/05 13:16:02;;;;;;;1.63;0.97;;;29.40;51.40;;;;;;4918466;29;20457;-77
2023/09/05 13:18:30;;;;;;;2.63;1.20;;;29.70;51.00;;;;;;4917896;29;20951;-80
2023/09/05 13:20:56;;;;;;;2.63;1.00;;;29.80;51.40;;;;;;4917215;29;20488;-76
2023/09/05 13:23:23;;;;;;;1.83;0.90;;;29.80;50.60;;;;;;4917775;29;20456;-78
2023/09/05 13:25:50;;;;;;;2.50;1.37;;;29.50;50.80;;;;;;4917376;29;20841;-76
2023/09/05 13:28:17;;;;;;;1.60;0.93;;;29.60;51.10;;;;;;4916923;29;20891;-77
2023/09/05 13:30:43;;;;;;;2.00;0.97;;;29.50;50.40;;;;;;4917364;29;20475;-76
2023/09/05 13:33:11;;;;;;;2.00;1.03;;;29.50;50.60;;;;;;4917927;29;20460;-76
2023/09/05 13:35:39;;;;;;;1.87;1.10;;;29.90;50.30;;;;;;4917102;29;20453;-77
2023/09/05 13:38:05;;;;;;;1.50;0.83;;;30.20;49.80;;;;;;4916940;29;20453;-76
2023/09/05 13:40:32;;;;;;;1.60;0.90;;;30.20;49.80;;;;;;4918289;29;21027;-79
2023/09/05 13:43:00;;;;;;;2.17;1.00;;;30.20;49.80;;;;;;4917303;29;20449;-77
2023/09/05 13:45:27;;;;;;;1.63;0.80;;;30.00;48.90;;;;;;4917729;29;20835;-77
2023/09/05 13:47:53;;;;;;;2.07;1.00;;;30.00;50.10;;;;;;4917605;29;20448;-78
2023/09/05 13:50:21;;;;;;;2.20;1.10;;;30.10;48.90;;;;;;4923760;29;20456;-79
2023/09/05 13:52:50;;;;;;;2.20;0.93;;;30.50;50.20;;;;;;4920944;29;20480;-77
2023/09/05 13:55:17;;;;;;;1.90;0.97;;;30.50;48.20;;;;;;4920235;29;20449;-77
2023/09/05 13:57:48;;;;;;;1.77;0.90;;;30.40;48.20;;;;;;4918514;29;20510;-77
2023/09/05 14:00:18;;;;;;;2.07;0.90;;;30.30;48.80;;;;;;4918245;29;20429;-77
2023/09/05 14:02:44;;;;;;;2.10;0.90;;;30.40;48.30;;;;;;4917996;29;20476;-77
2023/09/05 14:05:12;;;;;;;1.63;0.93;;;30.70;48.60;;;;;;4917155;29;20444;-78
2023/09/05 14:07:40;;;;;;;2.03;1.10;;;30.90;47.90;;;;;;4917986;29;20954;-78
2023/09/05 14:10:10;;;;;;;1.43;0.90;;;30.50;48.10;;;;;;4917698;29;20492;-76
2023/09/05 14:12:37;;;;;;;1.80;1.10;;;30.30;48.10;;;;;;4917379;29;20998;-77
2023/09/05 14:15:04;;;;;;;2.10;0.80;;;30.20;48.50;;;;;;4919680;29;20457;-78
2023/09/05 14:17:31;;;;;;;2.33;0.90;;;30.20;47.60;;;;;;4921223;29;20457;-77
2023/09/05 14:19:58;;;;;;;1.40;0.80;;;30.30;48.60;;;;;;4920994;29;20526;-78
2023/09/05 14:22:25;;;;;;;1.60;0.80;;;30.40;47.60;;;;;;4921178;29;20476;-77
2023/09/05 14:24:52;;;;;;;1.50;0.80;;;30.40;47.50;;;;;;4920691;29;20480;-77
2023/09/05 14:27:20;;;;;;;1.60;0.90;;;30.60;46.90;;;;;;4920957;29;20483;-77
2023/09/05 14:29:47;;;;;;;1.70;0.90;;;31.00;46.70;;;;;;4921340;29;20492;-77
2023/09/05 14:32:13;;;;;;;2.17;0.90;;;31.40;46.80;;;;;;4920588;29;20468;-76
2023/09/05 14:34:40;;;;;;;2.33;0.90;;;31.70;45.40;;;;;;4920391;29;20564;-76
2023/09/05 14:37:07;;;;;;;2.60;1.10;;;31.90;46.10;;;;;;4920943;29;20461;-76
2023/09/05 14:39:33;;;;;;;2.07;1.00;;;32.30;45.30;;;;;;4922574;29;20484;-76
2023/09/05 14:42:00;;;;;;;1.40;0.70;;;33.10;43.40;;;;;;4922746;29;20473;-78
2023/09/05 14:44:28;;;;;;;1.50;0.90;;;34.20;41.50;;;;;;4924323;29;20464;-75
2023/09/05 14:46:56;;;;;;;2.13;0.73;;;35.10;40.60;;;;;;4923482;29;20965;-79
2023/09/05 14:49:23;;;;;;;1.87;1.07;;;35.70;39.30;;;;;;4923555;29;20488;-76
2023/09/05 14:51:50;;;;;;;1.50;1.00;;;36.40;39.30;;;;;;4923759;29;20472;-77
2023/09/05 14:54:17;;;;;;;1.77;0.90;;;36.70;37.40;;;;;;4924582;29;20456;-76
2023/09/05 14:56:43;;;;;;;1.57;0.80;;;37.00;37.60;;;;;;4922479;29;20448;-78
2023/09/05 14:59:10;;;;;;;1.70;1.00;;;37.10;36.80;;;;;;4920134;29;20512;-77
2023/09/05 15:01:38;;;;;;;1.40;0.80;;;36.60;37.10;;;;;;4920135;29;21017;-78
2023/09/05 15:04:05;;;;;;;1.87;0.80;;;36.80;36.70;;;;;;4920798;29;20876;-78
2023/09/05 15:06:32;;;;;;;1.40;0.90;;;36.90;36.80;;;;;;4921029;29;20444;-78
2023/09/05 15:08:59;;;;;;;1.63;1.00;;;36.90;36.10;;;;;;4920882;29;20495;-77
2023/09/05 15:11:25;;;;;;;2.90;0.90;;;36.90;37.40;;;;;;4920186;29;20479;-76
2023/09/05 15:13:52;;;;;;;1.70;0.97;;;36.60;36.60;;;;;;4919398;29;20441;-76
2023/09/05 15:16:19;;;;;;;1.43;0.80;;;36.50;36.70;;;;;;4918848;29;20966;-76
2023/09/05 15:18:47;;;;;;;1.40;0.70;;;36.20;37.70;;;;;;4919668;29;20531;-77
2023/09/05 15:21:14;;;;;;;1.50;0.80;;;36.00;37.30;;;;;;4920853;29;20479;-78
2023/09/05 15:23:40;;;;;;;1.53;0.90;;;36.20;37.70;;;;;;4920846;29;20452;-77
2023/09/05 15:26:07;;;;;;;1.70;0.90;;;36.30;37.40;;;;;;4919926;29;20460;-77
2023/09/05 15:28:34;;;;;;;1.40;0.80;;;36.60;37.90;;;;;;4920567;29;20455;-77
2023/09/05 15:31:00;;;;;;;1.60;1.03;;;36.50;36.70;;;;;;4921908;29;20480;-76
2023/09/05 15:33:27;;;;;;;1.50;0.90;;;35.70;40.30;;;;;;4923864;29;20452;-76
2023/09/05 15:35:59;;;;;;;1.57;1.07;;;34.60;42.60;;;;;;4925160;29;20833;-75
2023/09/05 15:38:26;;;;;;;1.60;1.10;;;33.60;44.60;;;;;;4926442;29;20444;-76
2023/09/05 15:40:53;;;;;;;1.73;1.10;;;32.90;45.80;;;;;;4921553;29;20480;-76
2023/09/05 15:43:20;;;;;;;2.40;1.10;;;32.00;47.30;;;;;;4924251;29;20448;-76
2023/09/05 15:45:48;;;;;;;1.60;0.93;;;31.60;48.30;;;;;;4923791;29;20449;-75
2023/09/05 15:48:16;;;;;;;1.90;1.03;;;31.10;49.20;;;;;;4923515;29;20485;-75
2023/09/05 15:50:43;;;;;;;2.03;1.00;;;30.80;49.90;;;;;;4924159;29;20527;-76
2023/09/05 15:53:12;;;;;;;1.70;1.13;;;30.30;50.70;;;;;;4925751;29;20508;-77
2023/09/05 15:55:40;;;;;;;1.77;1.00;;;29.90;51.60;;;;;;4925306;29;20648;-76
2023/09/05 15:58:08;;;;;;;2.00;1.20;;;29.40;52.30;;;;;;4925355;29;20456;-76
2023/09/05 16:00:35;;;;;;;1.50;0.80;;;29.20;53.90;;;;;;4922275;29;20488;-77
2023/09/05 16:03:01;;;;;;;2.93;0.87;;;28.90;54.10;;;;;;4926450;29;20429;-76
2023/09/05 16:05:28;;;;;;;2.67;1.20;;;28.60;54.40;;;;;;4925879;29;20457;-76
2023/09/05 16:07:55;;;;;;;1.57;0.90;;;28.50;55.20;;;;;;4920741;29;20465;-73
2023/09/05 16:10:23;;;;;;;2.13;0.87;;;28.40;54.90;;;;;;4918128;29;20520;-76
2023/09/05 16:12:49;;;;;;;1.87;0.90;;;28.30;55.10;;;;;;4918026;29;20449;-76
2023/09/05 16:15:16;;;;;;;2.37;0.90;;;28.20;55.50;;;;;;5014211;23;20504;-74
2023/09/05 16:17:43;;;;;;;1.83;1.20;;;28.10;55.80;;;;;;4918337;29;20440;-75
2023/09/05 16:20:10;;;;;;;1.80;1.03;;;28.00;55.80;;;;;;4917766;29;20443;-75
2023/09/05 16:22:37;;;;;;;1.90;1.20;;;27.90;55.90;;;;;;4917743;29;20496;-75
2023/09/05 16:25:04;;;;;;;2.27;1.20;;;27.80;55.90;;;;;;4917619;29;20460;-75
2023/09/05 16:27:32;;;;;;;2.30;0.97;;;27.70;56.90;;;;;;4917638;29;20828;-75
2023/09/05 16:29:59;;;;;;;2.60;1.40;;;27.60;57.50;;;;;;4917583;29;20484;-75
2023/09/05 16:32:26;;;;;;;1.60;0.90;;;27.70;57.60;;;;;;4917692;29;20453;-75
2023/09/05 16:34:55;;;;;;;2.57;1.20;;;27.70;57.20;;;;;;4917482;29;20472;-75
2023/09/05 16:37:22;;;;;;;2.90;1.50;;;27.80;57.20;;;;;;4917145;29;20547;-75
2023/09/05 16:39:48;;;;;;;2.30;1.17;;;27.70;57.20;;;;;;4917548;29;20452;-74
2023/09/05 16:42:15;;;;;;;2.63;1.30;;;27.70;57.70;;;;;;4917133;29;20939;-76
2023/09/05 16:44:43;;;;;;;1.70;1.00;;;27.80;57.10;;;;;;4917408;29;20492;-75
2023/09/05 16:47:10;;;;;;;2.00;1.30;;;27.60;57.60;;;;;;4917351;29;20458;-75
2023/09/05 16:49:37;;;;;;;1.80;1.10;;;27.50;57.50;;;;;;4917225;29;20484;-76
2023/09/05 16:52:05;;;;;;;1.90;1.00;;;27.40;57.50;;;;;;4917328;29;20875;-75